Share

Daviston, AL (36256)

Russell (KALX) Elev 686 ft | 32.91 °N, 85.96 °W | Change Station

Current weather conditions updated 18 minutes ago

Light Rain
Light Rain
55 °F
Feels Like 55 °F
N
7
Wind Variable Wind from NE
Sunrise 6:09 AM
Sunset 7:15 PM
Moon Waning Gibbous

Today is forecast to be Much Cooler than yesterday. Cloudy with rain.

Pressure 30.23 in
Visibility 7.0 miles
Clouds Mostly Cloudy 900 ft
Overcast 1300 ft
Dew Point 50 °F
Humidity 83%
Rainfall 1.15 in
Snow Depth Not available.
UV 3 out of 16
Pollen 2.70 out of 12
Ozone Good
PM2.5 Moderate
Flu Activity Sporadic
METAR KALX 181615Z AUTO 05006KT 7SM -RA BKN009 OVC013 13/10 A3023 RMK AO2 P0002 T01300101

More Conditions Fewer Conditions

Pressure 30.23 in
Visibility 7.0 miles
Clouds Mostly Cloudy 900 ft
Overcast 1300 ft
Dew Point 50 °F
Humidity 83%
Rainfall 1.15 in
Snow Depth Not available.
UV 3 out of 16
Pollen 2.70 out of 12
Ozone Good
PM2.5 Moderate
Flu Activity Sporadic
METAR KALX 181615Z AUTO 05006KT 7SM -RA BKN009 OVC013 13/10 A3023 RMK AO2 P0002 T01300101

More Conditions Fewer Conditions

10-Day Forecast

Almanac

Astronomy

Apr. 18, 2014 Rise Set
Actual Time 6:09 AM CDT 7:15 PM CDT
Civil Twilight 5:44 AM CDT 7:41 PM CDT
Nautical Twilight 5:13 AM CDT 8:11 PM CDT
Astronomical Twilight 4:42 AM CDT 8:43 PM CDT
Moon 10:53 PM CDT 8:37 AM CDT
Length of Visible Light 13h 57m
Length of Day
13h 06m
Tomorrow will be 1m 54s longer.
Waning Gibbous, 87% of the Moon is Illuminated
Today
Waning Gibbous
Apr 22
Last Quarter
Apr 29
New
May 6
First Quarter
May 14
Full

Today's Extremes

State Highs State Lows

Community

  • What's for Lunch?
    What's for Lunch?
  • SUNRISE THROUGH THE TREES.
    SUNRISE THROUGH THE TREES.
  • Dog Wood Blossoms
    Dog Wood Blossoms
  • Morning Light
    Morning Light
  • New Day
    New Day

WunderPhotos

Upload Photos

1,702,407 photos uploaded!

Nearby

Air Quality

  Air Quality AQ Index Pollutant
Yesterday Good
OZONE
Yesterday Good
PM10
Current Moderate
PM2.5
Current Good
OZONE
Friday Good
PM2.5
Friday Good
OZONE

Snow Depth

Station Depth Elevation
No new snow has been reported.

Coastal Water Temperatures

Place Temperature
No Stations Reporting

Earthquake Activity

City Distance Mag. Time & Date
No recent earthquake activity has been reported nearby.
Minimum magnitude displayed is 2.5.

Nearby Weather Stations

Station Location Temp. Dew Point Humidity Wind Precip. Elev Updated Type
Clay Service and Electronics, Ashland, AL 51.7 °F 50 °F 92% ENE  at  4.0 mph 0.01 in / hr 1060 ft 11:33 AM CDT Rapid Fire
Weathers, Talladega, AL 52.9 °F 51 °F 93% ESE  at  1.7 mph - / hr 909 ft 11:25 AM CDT Normal
Swagg Cove, Wedowee, AL 52.2 °F 45 °F 76% North  at  2.2 mph 0.01 in / hr 981 ft 12:29 PM EDT Normal

Show More Stations Show Fewer Stations

What do you think?

We're not finished. Please let us know what you like, what you don't like, and what you are still missing.